sensor_id;sensor_type;location;lat;lon;timestamp;temperature;humidity
17954;DHT22;9102;53.548;9.926;2024-03-23T00:53:31;7.40;99.90
17954;DHT22;9102;53.548;9.926;2024-03-23T00:55:57;7.30;99.90
17954;DHT22;9102;53.548;9.926;2024-03-23T00:58:24;7.30;99.90
17954;DHT22;9102;53.548;9.926;2024-03-23T01:00:49;7.20;99.90
17954;DHT22;9102;53.548;9.926;2024-03-23T01:03:16;7.20;99.90
17954;DHT22;9102;53.548;9.926;2024-03-23T01:05:42;7.20;99.90
17954;DHT22;9102;53.548;9.926;2024-03-23T01:08:09;7.20;99.90
17954;DHT22;9102;53.548;9.926;2024-03-23T01:10:36;7.20;99.90
17954;DHT22;9102;53.548;9.926;2024-03-23T01:13:02;7.20;99.90
17954;DHT22;9102;53.548;9.926;2024-03-23T01:15:28;7.20;99.90
17954;DHT22;9102;53.548;9.926;2024-03-23T01:17:55;7.20;99.90
17954;DHT22;9102;53.548;9.926;2024-03-23T01:20:21;7.20;99.90
17954;DHT22;9102;53.548;9.926;2024-03-23T01:22:47;7.20;99.90
17954;DHT22;9102;53.548;9.926;2024-03-23T01:25:13;7.10;99.90
17954;DHT22;9102;53.548;9.926;2024-03-23T01:27:41;7.10;99.90
17954;DHT22;9102;53.548;9.926;2024-03-23T01:30:07;7.10;99.90
17954;DHT22;9102;53.548;9.926;2024-03-23T01:32:34;7.10;99.90
17954;DHT22;9102;53.548;9.926;2024-03-23T01:35:00;7.10;99.90
17954;DHT22;9102;53.548;9.926;2024-03-23T01:37:27;7.10;99.90
17954;DHT22;9102;53.548;9.926;2024-03-23T01:39:52;7.10;99.90
17954;DHT22;9102;53.548;9.926;2024-03-23T01:42:19;7.10;99.90
17954;DHT22;9102;53.548;9.926;2024-03-23T01:44:47;7.10;99.90
17954;DHT22;9102;53.548;9.926;2024-03-23T01:47:14;7.10;99.90
17954;DHT22;9102;53.548;9.926;2024-03-23T01:49:40;7.00;99.90
17954;DHT22;9102;53.548;9.926;2024-03-23T01:52:07;7.00;99.90
17954;DHT22;9102;53.548;9.926;2024-03-23T01:54:34;7.00;99.90
17954;DHT22;9102;53.548;9.926;2024-03-23T01:57:01;7.00;99.90
17954;DHT22;9102;53.548;9.926;2024-03-23T01:59:27;7.00;99.90
17954;DHT22;9102;53.548;9.926;2024-03-23T02:01:55;6.90;99.90
17954;DHT22;9102;53.548;9.926;2024-03-23T02:04:21;7.00;99.90
17954;DHT22;9102;53.548;9.926;2024-03-23T02:06:48;6.90;99.90
17954;DHT22;9102;53.548;9.926;2024-03-23T02:09:14;6.90;99.90
17954;DHT22;9102;53.548;9.926;2024-03-23T02:11:40;6.90;99.90
17954;DHT22;9102;53.548;9.926;2024-03-23T02:14:06;6.80;99.90
17954;DHT22;9102;53.548;9.926;2024-03-23T02:16:33;6.80;99.90
17954;DHT22;9102;53.548;9.926;2024-03-23T02:19:01;6.70;99.90
17954;DHT22;9102;53.548;9.926;2024-03-23T02:21:27;6.80;99.90
17954;DHT22;9102;53.548;9.926;2024-03-23T02:23:58;6.80;99.90
17954;DHT22;9102;53.548;9.926;2024-03-23T02:26:25;6.80;99.90
17954;DHT22;9102;53.548;9.926;2024-03-23T02:28:51;6.70;99.90
17954;DHT22;9102;53.548;9.926;2024-03-23T02:31:18;6.80;99.90
17954;DHT22;9102;53.548;9.926;2024-03-23T02:33:43;6.80;99.90
17954;DHT22;9102;53.548;9.926;2024-03-23T02:36:10;6.70;99.90
17954;DHT22;9102;53.548;9.926;2024-03-23T02:38:36;6.70;99.90
17954;DHT22;9102;53.548;9.926;2024-03-23T02:41:04;6.70;99.90
17954;DHT22;9102;53.548;9.926;2024-03-23T02:43:30;6.70;99.90
17954;DHT22;9102;53.548;9.926;2024-03-23T02:45:57;6.70;99.90
17954;DHT22;9102;53.548;9.926;2024-03-23T02:48:23;6.60;99.90
17954;DHT22;9102;53.548;9.926;2024-03-23T02:50:50;6.60;99.90
17954;DHT22;9102;53.548;9.926;2024-03-23T02:53:16;6.60;99.90
17954;DHT22;9102;53.548;9.926;2024-03-23T02:55:42;6.60;99.90
17954;DHT22;9102;53.548;9.926;2024-03-23T02:58:10;6.60;99.90
17954;DHT22;9102;53.548;9.926;2024-03-23T03:00:36;6.60;99.90
17954;DHT22;9102;53.548;9.926;2024-03-23T03:03:02;6.60;99.90
17954;DHT22;9102;53.548;9.926;2024-03-23T03:05:29;6.60;99.90
17954;DHT22;9102;53.548;9.926;2024-03-23T03:07:55;6.50;99.90
17954;DHT22;9102;53.548;9.926;2024-03-23T03:10:22;6.50;99.90
17954;DHT22;9102;53.548;9.926;2024-03-23T03:12:47;6.50;99.90
17954;DHT22;9102;53.548;9.926;2024-03-23T03:15:15;6.50;99.90
17954;DHT22;9102;53.548;9.926;2024-03-23T03:17:41;6.50;99.90
17954;DHT22;9102;53.548;9.926;2024-03-23T03:20:08;6.60;99.90
17954;DHT22;9102;53.548;9.926;2024-03-23T03:22:38;6.60;99.90
17954;DHT22;9102;53.548;9.926;2024-03-23T03:25:06;6.60;99.90
17954;DHT22;9102;53.548;9.926;2024-03-23T03:27:33;6.60;99.90
17954;DHT22;9102;53.548;9.926;2024-03-23T03:30:00;6.60;99.90
17954;DHT22;9102;53.548;9.926;2024-03-23T03:32:28;6.50;99.90
17954;DHT22;9102;53.548;9.926;2024-03-23T03:34:55;6.50;99.90
17954;DHT22;9102;53.548;9.926;2024-03-23T03:37:21;6.50;99.90
17954;DHT22;9102;53.548;9.926;2024-03-23T03:39:48;6.50;99.90
17954;DHT22;9102;53.548;9.926;2024-03-23T03:42:14;6.50;99.90
17954;DHT22;9102;53.548;9.926;2024-03-23T03:44:41;6.50;99.90
17954;DHT22;9102;53.548;9.926;2024-03-23T03:47:06;6.50;99.90
17954;DHT22;9102;53.548;9.926;2024-03-23T03:49:35;6.50;99.90
17954;DHT22;9102;53.548;9.926;2024-03-23T03:52:00;6.50;99.90
17954;DHT22;9102;53.548;9.926;2024-03-23T03:54:27;6.40;99.90
17954;DHT22;9102;53.548;9.926;2024-03-23T03:56:53;6.40;99.90
17954;DHT22;9102;53.548;9.926;2024-03-23T03:59:20;6.40;99.90
17954;DHT22;9102;53.548;9.926;2024-03-23T04:01:46;6.40;99.90
17954;DHT22;9102;53.548;9.926;2024-03-23T04:04:13;6.40;99.90
17954;DHT22;9102;53.548;9.926;2024-03-23T04:06:40;6.40;99.90
17954;DHT22;9102;53.548;9.926;2024-03-23T04:09:07;6.40;99.90
17954;DHT22;9102;53.548;9.926;2024-03-23T04:11:33;6.40;99.90
17954;DHT22;9102;53.548;9.926;2024-03-23T04:13:59;6.40;99.90
17954;DHT22;9102;53.548;9.926;2024-03-23T04:16:27;6.40;99.90
17954;DHT22;9102;53.548;9.926;2024-03-23T04:18:53;6.40;99.90
17954;DHT22;9102;53.548;9.926;2024-03-23T04:21:19;6.40;99.90
17954;DHT22;9102;53.548;9.926;2024-03-23T04:23:47;6.40;99.90
17954;DHT22;9102;53.548;9.926;2024-03-23T04:26:13;6.40;99.90
17954;DHT22;9102;53.548;9.926;2024-03-23T04:28:40;6.30;99.90
17954;DHT22;9102;53.548;9.926;2024-03-23T04:31:06;6.30;99.90
17954;DHT22;9102;53.548;9.926;2024-03-23T04:33:32;6.30;99.90
17954;DHT22;9102;53.548;9.926;2024-03-23T04:35:58;6.30;99.90
17954;DHT22;9102;53.548;9.926;2024-03-23T04:38:25;6.30;99.90
17954;DHT22;9102;53.548;9.926;2024-03-23T04:40:56;6.30;99.90
17954;DHT22;9102;53.548;9.926;2024-03-23T04:43:23;6.30;99.90
17954;DHT22;9102;53.548;9.926;2024-03-23T04:45:50;6.30;99.90
17954;DHT22;9102;53.548;9.926;2024-03-23T04:48:19;6.30;99.90
17954;DHT22;9102;53.548;9.926;2024-03-23T04:50:45;6.30;99.90
17954;DHT22;9102;53.548;9.926;2024-03-23T04:53:12;6.30;99.90
17954;DHT22;9102;53.548;9.926;2024-03-23T04:55:39;6.30;99.90
17954;DHT22;9102;53.548;9.926;2024-03-23T04:58:06;6.30;99.90
17954;DHT22;9102;53.548;9.926;2024-03-23T05:00:32;6.20;99.90
17954;DHT22;9102;53.548;9.926;2024-03-23T05:02:58;6.30;99.90
17954;DHT22;9102;53.548;9.926;2024-03-23T05:05:25;6.30;99.90
17954;DHT22;9102;53.548;9.926;2024-03-23T05:07:51;6.20;99.90
17954;DHT22;9102;53.548;9.926;2024-03-23T05:10:17;6.30;99.90
17954;DHT22;9102;53.548;9.926;2024-03-23T05:12:43;6.30;99.90
17954;DHT22;9102;53.548;9.926;2024-03-23T05:15:12;6.30;99.90
17954;DHT22;9102;53.548;9.926;2024-03-23T05:17:38;6.30;99.90
17954;DHT22;9102;53.548;9.926;2024-03-23T05:20:05;6.30;99.90
17954;DHT22;9102;53.548;9.926;2024-03-23T05:22:35;6.30;99.90
17954;DHT22;9102;53.548;9.926;2024-03-23T05:25:02;6.30;99.90
17954;DHT22;9102;53.548;9.926;2024-03-23T05:27:30;6.30;99.90
17954;DHT22;9102;53.548;9.926;2024-03-23T05:29:57;6.30;99.90
17954;DHT22;9102;53.548;9.926;2024-03-23T05:32:24;6.30;99.90
17954;DHT22;9102;53.548;9.926;2024-03-23T05:34:51;6.30;99.90
17954;DHT22;9102;53.548;9.926;2024-03-23T05:37:21;6.30;99.90
17954;DHT22;9102;53.548;9.926;2024-03-23T05:39:48;6.30;99.90
17954;DHT22;9102;53.548;9.926;2024-03-23T05:42:15;6.30;99.90
17954;DHT22;9102;53.548;9.926;2024-03-23T05:44:43;6.40;99.90
17954;DHT22;9102;53.548;9.926;2024-03-23T05:47:09;6.40;99.90
17954;DHT22;9102;53.548;9.926;2024-03-23T05:49:37;6.40;99.90
17954;DHT22;9102;53.548;9.926;2024-03-23T05:52:03;6.40;99.90
17954;DHT22;9102;53.548;9.926;2024-03-23T05:54:30;6.40;99.90
17954;DHT22;9102;53.548;9.926;2024-03-23T05:56:56;6.40;99.90
17954;DHT22;9102;53.548;9.926;2024-03-23T05:59:23;6.40;99.90
17954;DHT22;9102;53.548;9.926;2024-03-23T06:01:48;6.40;99.90
17954;DHT22;9102;53.548;9.926;2024-03-23T06:04:15;6.40;99.90
17954;DHT22;9102;53.548;9.926;2024-03-23T06:06:42;6.40;99.90
17954;DHT22;9102;53.548;9.926;2024-03-23T06:09:09;6.40;99.90
17954;DHT22;9102;53.548;9.926;2024-03-23T06:11:35;6.50;99.90
17954;DHT22;9102;53.548;9.926;2024-03-23T06:14:02;6.50;99.90
17954;DHT22;9102;53.548;9.926;2024-03-23T06:16:28;6.50;99.90
17954;DHT22;9102;53.548;9.926;2024-03-23T06:18:56;6.60;99.90
17954;DHT22;9102;53.548;9.926;2024-03-23T06:21:22;6.60;99.90
17954;DHT22;9102;53.548;9.926;2024-03-23T06:23:52;6.70;99.90
17954;DHT22;9102;53.548;9.926;2024-03-23T06:26:18;6.70;99.90
17954;DHT22;9102;53.548;9.926;2024-03-23T06:28:45;6.70;99.90
17954;DHT22;9102;53.548;9.926;2024-03-23T06:31:11;6.80;99.90
17954;DHT22;9102;53.548;9.926;2024-03-23T06:33:38;6.80;99.90
17954;DHT22;9102;53.548;9.926;2024-03-23T06:36:04;6.90;99.90
17954;DHT22;9102;53.548;9.926;2024-03-23T06:38:31;6.90;99.90
17954;DHT22;9102;53.548;9.926;2024-03-23T06:40:58;7.00;99.90
17954;DHT22;9102;53.548;9.926;2024-03-23T06:43:25;7.10;99.90
17954;DHT22;9102;53.548;9.926;2024-03-23T06:45:54;7.10;99.90
17954;DHT22;9102;53.548;9.926;2024-03-23T06:48:21;7.10;99.90
17954;DHT22;9102;53.548;9.926;2024-03-23T06:50:47;7.20;99.90
17954;DHT22;9102;53.548;9.926;2024-03-23T06:53:13;7.10;99.90
17954;DHT22;9102;53.548;9.926;2024-03-23T06:55:39;7.10;99.90
17954;DHT22;9102;53.548;9.926;2024-03-23T06:58:07;7.00;99.90
17954;DHT22;9102;53.548;9.926;2024-03-23T07:00:33;7.00;99.90
17954;DHT22;9102;53.548;9.926;2024-03-23T07:03:01;6.90;99.90
17954;DHT22;9102;53.548;9.926;2024-03-23T07:05:26;6.80;99.90
17954;DHT22;9102;53.548;9.926;2024-03-23T07:07:53;6.70;99.90
17954;DHT22;9102;53.548;9.926;2024-03-23T07:10:19;6.70;99.90
17954;DHT22;9102;53.548;9.926;2024-03-23T07:12:45;6.70;99.90
17954;DHT22;9102;53.548;9.926;2024-03-23T07:15:13;6.60;99.90
17954;DHT22;9102;53.548;9.926;2024-03-23T07:17:39;6.70;99.90
17954;DHT22;9102;53.548;9.926;2024-03-23T07:20:06;6.80;99.90
17954;DHT22;9102;53.548;9.926;2024-03-23T07:22:35;6.90;99.90
17954;DHT22;9102;53.548;9.926;2024-03-23T07:25:02;7.00;99.90
17954;DHT22;9102;53.548;9.926;2024-03-23T07:27:28;7.10;99.90
17954;DHT22;9102;53.548;9.926;2024-03-23T07:29:54;7.20;99.90
17954;DHT22;9102;53.548;9.926;2024-03-23T07:32:23;7.20;99.90
17954;DHT22;9102;53.548;9.926;2024-03-23T07:34:48;7.20;99.90
17954;DHT22;9102;53.548;9.926;2024-03-23T07:37:15;7.20;99.90
17954;DHT22;9102;53.548;9.926;2024-03-23T07:39:41;7.20;99.90
17954;DHT22;9102;53.548;9.926;2024-03-23T07:42:08;7.30;99.90
17954;DHT22;9102;53.548;9.926;2024-03-23T07:44:33;7.30;99.90
17954;DHT22;9102;53.548;9.926;2024-03-23T07:47:00;7.40;99.90
17954;DHT22;9102;53.548;9.926;2024-03-23T07:49:27;7.40;99.90
17954;DHT22;9102;53.548;9.926;2024-03-23T07:51:54;7.40;99.90
17954;DHT22;9102;53.548;9.926;2024-03-23T07:54:20;7.50;99.90
17954;DHT22;9102;53.548;9.926;2024-03-23T07:56:46;7.60;99.90
17954;DHT22;9102;53.548;9.926;2024-03-23T07:59:12;7.60;99.90
17954;DHT22;9102;53.548;9.926;2024-03-23T08:01:39;7.60;99.90
17954;DHT22;9102;53.548;9.926;2024-03-23T08:04:05;7.70;99.90
17954;DHT22;9102;53.548;9.926;2024-03-23T08:06:33;7.80;99.90
17954;DHT22;9102;53.548;9.926;2024-03-23T08:08:59;7.80;99.90
17954;DHT22;9102;53.548;9.926;2024-03-23T08:11:27;7.90;99.90
17954;DHT22;9102;53.548;9.926;2024-03-23T08:13:53;7.80;99.90
17954;DHT22;9102;53.548;9.926;2024-03-23T08:16:20;8.00;99.90
17954;DHT22;9102;53.548;9.926;2024-03-23T08:18:46;8.10;99.90
17954;DHT22;9102;53.548;9.926;2024-03-23T08:21:13;8.20;99.90
17954;DHT22;9102;53.548;9.926;2024-03-23T08:23:40;8.30;99.90
17954;DHT22;9102;53.548;9.926;2024-03-23T08:26:09;8.40;99.90
17954;DHT22;9102;53.548;9.926;2024-03-23T08:28:35;8.50;99.90
17954;DHT22;9102;53.548;9.926;2024-03-23T08:31:03;8.60;99.90
17954;DHT22;9102;53.548;9.926;2024-03-23T08:33:31;8.80;99.90
17954;DHT22;9102;53.548;9.926;2024-03-23T08:35:58;9.10;99.90
17954;DHT22;9102;53.548;9.926;2024-03-23T08:38:25;9.30;99.90
17954;DHT22;9102;53.548;9.926;2024-03-23T08:40:57;9.40;99.90
17954;DHT22;9102;53.548;9.926;2024-03-23T08:43:23;9.40;99.90
17954;DHT22;9102;53.548;9.926;2024-03-23T08:45:50;9.40;99.90
17954;DHT22;9102;53.548;9.926;2024-03-23T08:48:17;9.40;99.90
17954;DHT22;9102;53.548;9.926;2024-03-23T08:50:45;9.20;99.90
17954;DHT22;9102;53.548;9.926;2024-03-23T08:53:11;9.20;99.90
17954;DHT22;9102;53.548;9.926;2024-03-23T08:55:38;9.00;99.90
17954;DHT22;9102;53.548;9.926;2024-03-23T08:58:05;9.00;99.90
17954;DHT22;9102;53.548;9.926;2024-03-23T09:00:34;9.20;99.90
17954;DHT22;9102;53.548;9.926;2024-03-23T09:02:59;9.20;99.90
17954;DHT22;9102;53.548;9.926;2024-03-23T09:05:27;9.30;99.90
17954;DHT22;9102;53.548;9.926;2024-03-23T09:07:54;9.40;99.90
17954;DHT22;9102;53.548;9.926;2024-03-23T09:10:20;9.60;99.90
17954;DHT22;9102;53.548;9.926;2024-03-23T09:12:47;9.70;99.90
17954;DHT22;9102;53.548;9.926;2024-03-23T09:15:18;9.90;99.90
17954;DHT22;9102;53.548;9.926;2024-03-23T09:17:43;10.20;99.90
17954;DHT22;9102;53.548;9.926;2024-03-23T09:20:11;10.20;99.90
17954;DHT22;9102;53.548;9.926;2024-03-23T09:22:36;10.10;99.90
17954;DHT22;9102;53.548;9.926;2024-03-23T09:25:04;10.00;99.90
17954;DHT22;9102;53.548;9.926;2024-03-23T09:27:30;9.70;99.90
17954;DHT22;9102;53.548;9.926;2024-03-23T09:29:57;9.60;99.90
17954;DHT22;9102;53.548;9.926;2024-03-23T09:32:24;9.50;99.90
17954;DHT22;9102;53.548;9.926;2024-03-23T09:34:51;9.40;99.90
17954;DHT22;9102;53.548;9.926;2024-03-23T09:37:17;9.50;99.90
17954;DHT22;9102;53.548;9.926;2024-03-23T09:39:44;9.40;99.90
17954;DHT22;9102;53.548;9.926;2024-03-23T09:42:09;9.50;99.90
17954;DHT22;9102;53.548;9.926;2024-03-23T09:44:36;9.40;99.90
17954;DHT22;9102;53.548;9.926;2024-03-23T09:47:02;9.50;99.90
17954;DHT22;9102;53.548;9.926;2024-03-23T09:49:30;9.50;99.90
17954;DHT22;9102;53.548;9.926;2024-03-23T09:51:58;9.70;99.90
17954;DHT22;9102;53.548;9.926;2024-03-23T09:54:24;9.80;99.90
17954;DHT22;9102;53.548;9.926;2024-03-23T09:56:50;10.00;99.90
17954;DHT22;9102;53.548;9.926;2024-03-23T09:59:17;10.20;99.90
17954;DHT22;9102;53.548;9.926;2024-03-23T10:01:43;10.20;99.90
17954;DHT22;9102;53.548;9.926;2024-03-23T10:04:10;10.30;99.90
17954;DHT22;9102;53.548;9.926;2024-03-23T10:06:37;10.60;99.90
17954;DHT22;9102;53.548;9.926;2024-03-23T10:09:16;10.70;99.90
17954;DHT22;9102;53.548;9.926;2024-03-23T10:11:43;10.80;99.90
17954;DHT22;9102;53.548;9.926;2024-03-23T10:14:28;10.60;99.90
17954;DHT22;9102;53.548;9.926;2024-03-23T10:16:54;10.60;99.90
17954;DHT22;9102;53.548;9.926;2024-03-23T10:19:30;10.80;99.90
17954;DHT22;9102;53.548;9.926;2024-03-23T10:21:58;10.90;99.90
17954;DHT22;9102;53.548;9.926;2024-03-23T10:24:25;11.00;99.90
17954;DHT22;9102;53.548;9.926;2024-03-23T10:26:56;10.80;99.90
17954;DHT22;9102;53.548;9.926;2024-03-23T10:29:23;10.90;99.90
17954;DHT22;9102;53.548;9.926;2024-03-23T10:31:48;10.90;99.90
17954;DHT22;9102;53.548;9.926;2024-03-23T10:34:15;10.60;99.90
17954;DHT22;9102;53.548;9.926;2024-03-23T10:36:41;10.40;99.90
17954;DHT22;9102;53.548;9.926;2024-03-23T10:39:10;10.00;99.90
17954;DHT22;9102;53.548;9.926;2024-03-23T10:41:37;9.50;99.90
17954;DHT22;9102;53.548;9.926;2024-03-23T10:44:06;8.50;99.90
17954;DHT22;9102;53.548;9.926;2024-03-23T10:46:32;8.00;99.90
17954;DHT22;9102;53.548;9.926;2024-03-23T10:48:59;7.80;99.90
17954;DHT22;9102;53.548;9.926;2024-03-23T10:51:25;7.60;99.90
17954;DHT22;9102;53.548;9.926;2024-03-23T10:53:52;7.60;99.90
17954;DHT22;9102;53.548;9.926;2024-03-23T10:56:20;7.60;99.90
17954;DHT22;9102;53.548;9.926;2024-03-23T10:58:48;7.60;99.90
17954;DHT22;9102;53.548;9.926;2024-03-23T11:01:14;7.80;99.90
17954;DHT22;9102;53.548;9.926;2024-03-23T11:03:45;7.70;99.90
17954;DHT22;9102;53.548;9.926;2024-03-23T11:06:34;8.00;99.90
17954;DHT22;9102;53.548;9.926;2024-03-23T11:09:01;8.40;99.90
17954;DHT22;9102;53.548;9.926;2024-03-23T11:11:28;8.80;99.90
17954;DHT22;9102;53.548;9.926;2024-03-23T11:13:58;8.90;99.90
17954;DHT22;9102;53.548;9.926;2024-03-23T11:16:25;9.00;99.90
17954;DHT22;9102;53.548;9.926;2024-03-23T11:19:33;8.90;99.90
17954;DHT22;9102;53.548;9.926;2024-03-23T11:22:00;9.00;99.90
17954;DHT22;9102;53.548;9.926;2024-03-23T11:24:26;9.00;99.90
17954;DHT22;9102;53.548;9.926;2024-03-23T11:26:54;8.90;99.90
17954;DHT22;9102;53.548;9.926;2024-03-23T11:29:21;8.90;99.90
17954;DHT22;9102;53.548;9.926;2024-03-23T11:31:47;8.90;99.90
17954;DHT22;9102;53.548;9.926;2024-03-23T11:34:15;9.00;99.90
17954;DHT22;9102;53.548;9.926;2024-03-23T11:36:41;9.10;99.90
17954;DHT22;9102;53.548;9.926;2024-03-23T11:39:14;9.10;99.90
17954;DHT22;9102;53.548;9.926;2024-03-23T11:41:48;9.20;99.90
17954;DHT22;9102;53.548;9.926;2024-03-23T11:44:18;9.50;99.90
17954;DHT22;9102;53.548;9.926;2024-03-23T11:46:44;10.00;99.90
17954;DHT22;9102;53.548;9.926;2024-03-23T11:49:21;10.50;99.90
17954;DHT22;9102;53.548;9.926;2024-03-23T11:51:47;10.80;99.90
17954;DHT22;9102;53.548;9.926;2024-03-23T11:54:14;11.10;99.90
17954;DHT22;9102;53.548;9.926;2024-03-23T11:56:40;11.30;99.90
17954;DHT22;9102;53.548;9.926;2024-03-23T11:59:07;11.50;99.90
17954;DHT22;9102;53.548;9.926;2024-03-23T12:01:34;11.60;99.90
17954;DHT22;9102;53.548;9.926;2024-03-23T12:04:01;11.00;99.90
17954;DHT22;9102;53.548;9.926;2024-03-23T12:06:27;9.90;99.90
17954;DHT22;9102;53.548;9.926;2024-03-23T12:09:05;9.10;99.90
17954;DHT22;9102;53.548;9.926;2024-03-23T12:11:31;8.70;99.90
17954;DHT22;9102;53.548;9.926;2024-03-23T12:13:59;8.60;99.90
17954;DHT22;9102;53.548;9.926;2024-03-23T12:16:25;8.80;99.90
17954;DHT22;9102;53.548;9.926;2024-03-23T12:19:05;8.90;99.90
17954;DHT22;9102;53.548;9.926;2024-03-23T12:21:31;8.80;99.90
17954;DHT22;9102;53.548;9.926;2024-03-23T12:23:57;8.60;99.90
17954;DHT22;9102;53.548;9.926;2024-03-23T12:26:24;8.30;99.90
17954;DHT22;9102;53.548;9.926;2024-03-23T12:28:50;8.10;99.90
17954;DHT22;9102;53.548;9.926;2024-03-23T12:31:16;8.00;99.90
17954;DHT22;9102;53.548;9.926;2024-03-23T12:33:43;8.20;99.90
17954;DHT22;9102;53.548;9.926;2024-03-23T12:36:11;8.50;99.90
17954;DHT22;9102;53.548;9.926;2024-03-23T12:38:38;8.60;99.90
17954;DHT22;9102;53.548;9.926;2024-03-23T12:41:04;8.30;99.90
17954;DHT22;9102;53.548;9.926;2024-03-23T12:43:31;7.70;99.90
17954;DHT22;9102;53.548;9.926;2024-03-23T12:45:57;7.20;99.90
17954;DHT22;9102;53.548;9.926;2024-03-23T12:48:23;6.90;99.90
17954;DHT22;9102;53.548;9.926;2024-03-23T12:50:54;6.70;99.90
17954;DHT22;9102;53.548;9.926;2024-03-23T12:53:22;6.60;99.90
17954;DHT22;9102;53.548;9.926;2024-03-23T12:55:48;6.50;99.90
17954;DHT22;9102;53.548;9.926;2024-03-23T12:58:14;6.50;99.90
17954;DHT22;9102;53.548;9.926;2024-03-23T13:00:40;6.40;99.90
17954;DHT22;9102;53.548;9.926;2024-03-23T13:03:07;6.40;99.90
17954;DHT22;9102;53.548;9.926;2024-03-23T13:05:33;6.40;99.90
17954;DHT22;9102;53.548;9.926;2024-03-23T13:07:59;6.50;99.90
17954;DHT22;9102;53.548;9.926;2024-03-23T13:10:27;6.60;99.90
17954;DHT22;9102;53.548;9.926;2024-03-23T13:12:53;6.70;99.90
17954;DHT22;9102;53.548;9.926;2024-03-23T13:15:19;6.80;99.90
17954;DHT22;9102;53.548;9.926;2024-03-23T13:17:46;7.00;99.90
17954;DHT22;9102;53.548;9.926;2024-03-23T13:20:12;7.20;99.90
17954;DHT22;9102;53.548;9.926;2024-03-23T13:22:40;7.30;99.90
17954;DHT22;9102;53.548;9.926;2024-03-23T13:25:07;7.40;99.90
17954;DHT22;9102;53.548;9.926;2024-03-23T13:27:35;7.40;99.90
17954;DHT22;9102;53.548;9.926;2024-03-23T13:30:01;7.40;99.90
17954;DHT22;9102;53.548;9.926;2024-03-23T13:32:29;7.50;99.90
17954;DHT22;9102;53.548;9.926;2024-03-23T13:34:55;7.50;99.90
17954;DHT22;9102;53.548;9.926;2024-03-23T13:37:21;7.50;99.90
17954;DHT22;9102;53.548;9.926;2024-03-23T13:39:47;7.70;99.90
17954;DHT22;9102;53.548;9.926;2024-03-23T13:42:14;7.80;99.90
17954;DHT22;9102;53.548;9.926;2024-03-23T13:44:48;7.90;99.90
17954;DHT22;9102;53.548;9.926;2024-03-23T13:47:15;8.00;99.90
17954;DHT22;9102;53.548;9.926;2024-03-23T13:49:41;8.10;99.90
17954;DHT22;9102;53.548;9.926;2024-03-23T13:52:08;8.10;99.90
17954;DHT22;9102;53.548;9.926;2024-03-23T13:54:33;8.00;99.90
17954;DHT22;9102;53.548;9.926;2024-03-23T13:57:00;8.00;99.90
17954;DHT22;9102;53.548;9.926;2024-03-23T13:59:27;8.00;99.90
17954;DHT22;9102;53.548;9.926;2024-03-23T14:01:55;8.10;99.90
17954;DHT22;9102;53.548;9.926;2024-03-23T14:04:21;8.50;99.90
17954;DHT22;9102;53.548;9.926;2024-03-23T14:06:49;8.70;99.90
17954;DHT22;9102;53.548;9.926;2024-03-23T14:09:15;8.80;99.90
17954;DHT22;9102;53.548;9.926;2024-03-23T14:11:48;8.90;99.90
17954;DHT22;9102;53.548;9.926;2024-03-23T14:14:14;9.00;99.90
17954;DHT22;9102;53.548;9.926;2024-03-23T14:16:42;9.10;99.90
17954;DHT22;9102;53.548;9.926;2024-03-23T14:19:09;8.90;99.90
17954;DHT22;9102;53.548;9.926;2024-03-23T14:21:36;8.80;99.90
17954;DHT22;9102;53.548;9.926;2024-03-23T14:24:02;8.80;99.90
17954;DHT22;9102;53.548;9.926;2024-03-23T14:26:29;8.70;99.90
17954;DHT22;9102;53.548;9.926;2024-03-23T14:28:55;8.80;99.90
17954;DHT22;9102;53.548;9.926;2024-03-23T14:31:21;8.90;99.90
17954;DHT22;9102;53.548;9.926;2024-03-23T14:33:47;8.90;99.90
17954;DHT22;9102;53.548;9.926;2024-03-23T14:36:17;8.90;99.90
17954;DHT22;9102;53.548;9.926;2024-03-23T14:38:46;8.90;99.90
17954;DHT22;9102;53.548;9.926;2024-03-23T14:41:13;8.90;99.90
17954;DHT22;9102;53.548;9.926;2024-03-23T14:43:39;8.90;99.90
17954;DHT22;9102;53.548;9.926;2024-03-23T14:46:09;9.10;99.90
17954;DHT22;9102;53.548;9.926;2024-03-23T14:48:35;9.10;99.90
17954;DHT22;9102;53.548;9.926;2024-03-23T14:51:03;9.00;99.90
17954;DHT22;9102;53.548;9.926;2024-03-23T14:53:31;8.90;99.90
17954;DHT22;9102;53.548;9.926;2024-03-23T14:55:58;8.60;99.90
17954;DHT22;9102;53.548;9.926;2024-03-23T14:58:25;8.00;99.90
17954;DHT22;9102;53.548;9.926;2024-03-23T15:00:52;7.40;99.90
17954;DHT22;9102;53.548;9.926;2024-03-23T15:03:18;7.10;99.90
17954;DHT22;9102;53.548;9.926;2024-03-23T15:05:52;6.90;99.90
17954;DHT22;9102;53.548;9.926;2024-03-23T15:08:18;6.80;99.90
17954;DHT22;9102;53.548;9.926;2024-03-23T15:10:46;6.70;99.90
17954;DHT22;9102;53.548;9.926;2024-03-23T15:13:12;6.70;99.90
17954;DHT22;9102;53.548;9.926;2024-03-23T15:15:40;6.60;99.90
17954;DHT22;9102;53.548;9.926;2024-03-23T15:18:07;6.70;99.90
17954;DHT22;9102;53.548;9.926;2024-03-23T15:20:33;6.80;99.90
17954;DHT22;9102;53.548;9.926;2024-03-23T15:23:01;7.00;99.90
17954;DHT22;9102;53.548;9.926;2024-03-23T15:25:28;7.10;99.90
17954;DHT22;9102;53.548;9.926;2024-03-23T15:27:55;7.10;99.90
17954;DHT22;9102;53.548;9.926;2024-03-23T15:30:23;6.90;99.90
17954;DHT22;9102;53.548;9.926;2024-03-23T15:32:48;6.90;99.90
17954;DHT22;9102;53.548;9.926;2024-03-23T15:35:15;6.80;99.90
17954;DHT22;9102;53.548;9.926;2024-03-23T15:37:41;6.80;99.90
17954;DHT22;9102;53.548;9.926;2024-03-23T15:40:09;6.80;99.90
17954;DHT22;9102;53.548;9.926;2024-03-23T15:42:35;6.80;99.90
17954;DHT22;9102;53.548;9.926;2024-03-23T15:45:06;6.80;99.90
17954;DHT22;9102;53.548;9.926;2024-03-23T15:47:33;6.90;99.90
17954;DHT22;9102;53.548;9.926;2024-03-23T15:49:59;7.00;99.90
17954;DHT22;9102;53.548;9.926;2024-03-23T15:52:25;7.10;99.90
17954;DHT22;9102;53.548;9.926;2024-03-23T15:54:52;7.20;99.90
17954;DHT22;9102;53.548;9.926;2024-03-23T15:57:18;7.30;99.90
17954;DHT22;9102;53.548;9.926;2024-03-23T15:59:44;7.40;99.90
17954;DHT22;9102;53.548;9.926;2024-03-23T16:02:11;7.40;99.90
17954;DHT22;9102;53.548;9.926;2024-03-23T16:04:38;7.50;99.90
17954;DHT22;9102;53.548;9.926;2024-03-23T16:07:04;7.50;99.90
17954;DHT22;9102;53.548;9.926;2024-03-23T16:09:31;7.40;99.90
17954;DHT22;9102;53.548;9.926;2024-03-23T16:11:56;7.20;99.90
17954;DHT22;9102;53.548;9.926;2024-03-23T16:14:23;7.20;99.90
17954;DHT22;9102;53.548;9.926;2024-03-23T16:16:49;7.10;99.90
17954;DHT22;9102;53.548;9.926;2024-03-23T16:19:17;7.10;99.90
17954;DHT22;9102;53.548;9.926;2024-03-23T16:21:43;7.20;99.90
17954;DHT22;9102;53.548;9.926;2024-03-23T16:24:09;7.20;99.90
17954;DHT22;9102;53.548;9.926;2024-03-23T16:26:36;7.30;99.90
17954;DHT22;9102;53.548;9.926;2024-03-23T16:29:03;7.40;99.90
17954;DHT22;9102;53.548;9.926;2024-03-23T16:31:28;7.40;99.90
17954;DHT22;9102;53.548;9.926;2024-03-23T16:33:55;7.40;99.90
17954;DHT22;9102;53.548;9.926;2024-03-23T16:36:23;7.40;99.90
17954;DHT22;9102;53.548;9.926;2024-03-23T16:38:51;7.40;99.90
17954;DHT22;9102;53.548;9.926;2024-03-23T16:41:16;7.40;99.90
17954;DHT22;9102;53.548;9.926;2024-03-23T16:43:44;7.40;99.90
17954;DHT22;9102;53.548;9.926;2024-03-23T16:46:11;7.40;99.90
17954;DHT22;9102;53.548;9.926;2024-03-23T16:48:38;7.40;99.90
17954;DHT22;9102;53.548;9.926;2024-03-23T16:51:04;7.30;99.90